Time;durP1;ratioP1;P1;durP2;ratioP2;P2;SDS_P1;SDS_P2;PMS_P1;PMS_P2;Temp;Humidity;BMP_temperature;BMP_pressure;BME280_temperature;BME280_humidity;BME280_pressure;Samples;Min_cycle;Max_cycle;Signal;HPM_P1;HPM_P2
2023/09/20 00:08:37;;;;;;;;;;;;;;;;;;;;;
2023/09/20 00:14:30;;;;;;;13.82;5.82;;;;;;;;;;10136402;28;20043;-73
2023/09/20 00:19:36;;;;;;;6.65;6.03;;;;;;;;;;10136014;28;20050;-72
2023/09/20 00:25:00;;;;;;;6.82;5.93;;;;;;;;;;10091104;28;20513;-73
2023/09/20 00:35:41;;;;;;;8.23;5.80;;;;;;;;;;10118730;28;20063;-72
2023/09/20 00:40:39;;;;;;;6.68;5.70;;;;;;;;;;10144286;28;20043;-72
2023/09/20 00:45:40;;;;;;;8.10;5.65;;;;;;;;;;10132005;28;20055;-72
2023/09/20 00:50:37;;;;;;;6.93;6.20;;;;;;;;;;10146486;28;20138;-72
2023/09/20 00:55:35;;;;;;;7.85;5.60;;;;;;;;;;10130537;28;20054;-72
2023/09/20 01:00:32;;;;;;;7.53;5.63;;;;;;;;;;10149213;28;20084;-72
2023/09/20 01:05:34;;;;;;;11.00;6.47;;;;;;;;;;10131619;28;20049;-71
2023/09/20 01:10:36;;;;;;;6.63;5.68;;;;;;;;;;10142933;28;20445;-73
2023/09/20 01:15:34;;;;;;;8.00;6.03;;;;;;;;;;10147777;28;20081;-72
2023/09/20 01:20:36;;;;;;;12.90;6.60;;;;;;;;;;10144116;28;20112;-72
2023/09/20 01:25:41;;;;;;;6.35;5.68;;;;;;;;;;10144390;28;21139;-72
2023/09/20 01:30:38;;;;;;;8.80;6.00;;;;;;;;;;10148380;28;20054;-72
2023/09/20 01:35:34;;;;;;;10.88;5.95;;;;;;;;;;10127845;28;20061;-72
2023/09/20 01:40:33;;;;;;;8.15;5.97;;;;;;;;;;10140627;28;20184;-72
2023/09/20 01:45:29;;;;;;;6.20;5.60;;;;;;;;;;10148828;28;20054;-71
2023/09/20 01:50:26;;;;;;;8.63;6.13;;;;;;;;;;10157574;28;20047;-72
2023/09/20 01:55:23;;;;;;;8.60;6.00;;;;;;;;;;10147592;28;20046;-72
2023/09/20 02:00:30;;;;;;;12.55;6.28;;;;;;;;;;10265800;22;20144;-72
2023/09/20 02:47:13;;;;;;;11.10;6.43;;;;;;;;;;10117454;28;20911;-72
2023/09/20 02:52:10;;;;;;;10.68;6.57;;;;;;;;;;10104527;28;20074;-72
2023/09/20 02:57:07;;;;;;;9.20;6.50;;;;;;;;;;10110665;28;20081;-73
2023/09/20 03:02:03;;;;;;;10.73;6.45;;;;;;;;;;10107670;28;20051;-72
2023/09/20 03:07:01;;;;;;;7.88;6.78;;;;;;;;;;10114804;28;20050;-72
2023/09/20 03:11:58;;;;;;;7.35;6.57;;;;;;;;;;10127877;23;20058;-72
2023/09/20 03:16:54;;;;;;;7.47;6.63;;;;;;;;;;10111516;28;20050;-72
2023/09/20 03:21:50;;;;;;;9.30;7.15;;;;;;;;;;10112082;28;20531;-72
2023/09/20 03:26:47;;;;;;;9.10;7.22;;;;;;;;;;10111802;28;20467;-72
2023/09/20 03:31:44;;;;;;;8.20;7.05;;;;;;;;;;10110179;28;20526;-71
2023/09/20 03:36:41;;;;;;;7.68;6.97;;;;;;;;;;10086736;28;20133;-72
2023/09/20 03:41:41;;;;;;;9.88;7.38;;;;;;;;;;10107642;28;20059;-72
2023/09/20 03:46:37;;;;;;;9.45;7.38;;;;;;;;;;10110379;28;20066;-72
2023/09/20 03:51:34;;;;;;;10.82;7.07;;;;;;;;;;10339639;22;21458;-72
2023/09/20 03:56:30;;;;;;;10.07;7.13;;;;;;;;;;10143549;28;20058;-72
2023/09/20 04:06:39;;;;;;;10.67;7.10;;;;;;;;;;10364829;23;20045;-72
2023/09/20 04:22:23;;;;;;;8.40;7.60;;;;;;;;;;10189513;28;20133;-72
2023/09/20 04:27:21;;;;;;;9.52;7.53;;;;;;;;;;10178161;28;20123;-72
2023/09/20 04:37:38;;;;;;;12.15;8.90;;;;;;;;;;10145864;28;20046;-72
2023/09/20 04:47:45;;;;;;;8.05;7.35;;;;;;;;;;10196261;22;20109;-72
2023/09/20 04:52:43;;;;;;;8.25;6.90;;;;;;;;;;10053607;28;20047;-73
2023/09/20 04:57:39;;;;;;;8.35;7.55;;;;;;;;;;10064877;28;20074;-73
2023/09/20 05:02:35;;;;;;;9.65;8.65;;;;;;;;;;10298982;23;20059;-72
2023/09/20 05:07:33;;;;;;;9.13;7.93;;;;;;;;;;10133810;28;20050;-72
2023/09/20 05:17:51;;;;;;;9.80;7.80;;;;;;;;;;10118356;28;20050;-72
2023/09/20 05:23:07;;;;;;;10.38;7.63;;;;;;;;;;10139675;22;20158;-72
2023/09/20 05:34:21;;;;;;;8.77;7.88;;;;;;;;;;10094322;28;20047;-72
2023/09/20 05:39:20;;;;;;;10.32;7.97;;;;;;;;;;10121390;28;20067;-72
2023/09/20 05:44:19;;;;;;;9.10;7.65;;;;;;;;;;10125831;28;20415;-72
2023/09/20 05:49:16;;;;;;;10.27;7.88;;;;;;;;;;10126331;28;20087;-73
2023/09/20 05:54:13;;;;;;;8.32;7.53;;;;;;;;;;10219038;23;20045;-73
2023/09/20 05:59:09;;;;;;;11.75;7.70;;;;;;;;;;10177458;28;20104;-73
2023/09/20 06:04:07;;;;;;;9.88;8.18;;;;;;;;;;10141200;28;20530;-72
2023/09/20 06:09:04;;;;;;;11.55;8.55;;;;;;;;;;10161579;28;20051;-72
2023/09/20 06:14:00;;;;;;;10.43;7.72;;;;;;;;;;10157104;28;20434;-72
2023/09/20 06:18:56;;;;;;;8.57;7.72;;;;;;;;;;10159848;28;20053;-72
2023/09/20 06:24:04;;;;;;;8.90;7.93;;;;;;;;;;10166737;28;20125;-72
2023/09/20 06:29:01;;;;;;;10.25;8.13;;;;;;;;;;10158307;28;20049;-73
2023/09/20 06:33:58;;;;;;;13.88;8.70;;;;;;;;;;10139426;28;20050;-73
2023/09/20 06:38:54;;;;;;;8.45;7.70;;;;;;;;;;10155877;28;20054;-73
2023/09/20 06:43:51;;;;;;;9.40;7.82;;;;;;;;;;10495840;23;20116;-73
2023/09/20 06:48:47;;;;;;;9.35;8.35;;;;;;;;;;10181452;28;20429;-73
2023/09/20 07:05:10;;;;;;;16.02;8.43;;;;;;;;;;10092960;22;20134;-72
2023/09/20 07:21:20;;;;;;;12.45;8.95;;;;;;;;;;10131678;28;20047;-72
2023/09/20 07:26:16;;;;;;;9.57;7.82;;;;;;;;;;10094906;28;20050;-74
2023/09/20 07:31:18;;;;;;;11.80;8.63;;;;;;;;;;10109331;28;20514;-74
2023/09/20 07:36:15;;;;;;;;;;;;;;;;;;10114080;28;20050;-74
2023/09/20 07:41:13;;;;;;;12.02;7.97;;;;;;;;;;10109929;28;19922;-73
2023/09/20 07:46:10;;;;;;;10.85;8.00;;;;;;;;;;10107745;28;20058;-73
2023/09/20 07:51:10;;;;;;;9.98;8.23;;;;;;;;;;10106734;28;20050;-73
2023/09/20 07:56:11;;;;;;;9.82;8.80;;;;;;;;;;10117147;28;20080;-73
2023/09/20 08:01:18;;;;;;;11.88;8.00;;;;;;;;;;10110888;28;20557;-73
2023/09/20 08:06:15;;;;;;;9.43;8.00;;;;;;;;;;10106171;28;20074;-73
2023/09/20 08:11:11;;;;;;;11.90;8.65;;;;;;;;;;10104836;28;20058;-73
2023/09/20 08:16:12;;;;;;;11.63;7.90;;;;;;;;;;10112304;28;20054;-73
2023/09/20 08:21:09;;;;;;;11.63;8.13;;;;;;;;;;10167894;23;20137;-74
2023/09/20 09:26:20;;;;;;;8.10;6.32;;;;;;;;;;10258907;22;20051;-73
2023/09/20 09:31:17;;;;;;;7.07;6.47;;;;;;;;;;10149648;28;20157;-73
2023/09/20 09:36:14;;;;;;;10.52;6.68;;;;;;;;;;10139319;28;20078;-73
2023/09/20 09:41:11;;;;;;;7.50;6.45;;;;;;;;;;10147631;28;20050;-74
2023/09/20 09:46:08;;;;;;;9.10;6.93;;;;;;;;;;10149167;28;20050;-74
2023/09/20 09:51:06;;;;;;;7.78;6.13;;;;;;;;;;10151906;28;20054;-73
2023/09/20 09:56:03;;;;;;;8.35;6.25;;;;;;;;;;10143569;28;20046;-73
2023/09/20 10:01:04;;;;;;;9.27;6.28;;;;;;;;;;10144318;28;20054;-73
2023/09/20 10:06:07;;;;;;;7.73;6.17;;;;;;;;;;10148865;28;20449;-74
2023/09/20 10:18:03;;;;;;;15.07;6.28;;;;;;;;;;10092312;28;20046;-73
2023/09/20 10:35:29;;;;;;;;;;;;;;;;;;;;;
2023/09/20 10:45:51;;;;;;;9.98;6.60;;;;;;;;;;9755467;26;20051;-73
2023/09/20 10:51:18;;;;;;;9.48;6.53;;;;;;;;;;10097693;28;20055;-73
2023/09/20 10:56:54;;;;;;;8.60;6.47;;;;;;;;;;10061372;28;20511;-73
2023/09/20 11:13:41;;;;;;;8.32;7.43;;;;;;;;;;10062419;28;20495;-73
2023/09/20 11:18:38;;;;;;;11.57;7.40;;;;;;;;;;10102458;28;20050;-73
2023/09/20 11:23:35;;;;;;;13.90;8.52;;;;;;;;;;10093159;28;20552;-73
2023/09/20 11:28:34;;;;;;;16.48;8.38;;;;;;;;;;10105563;28;20598;-73
2023/09/20 11:33:30;;;;;;;13.70;6.78;;;;;;;;;;10100243;28;20078;-73
2023/09/20 11:38:27;;;;;;;10.52;6.88;;;;;;;;;;10105757;28;20463;-73
2023/09/20 11:43:27;;;;;;;10.73;7.45;;;;;;;;;;10114142;28;20158;-73
2023/09/20 11:48:23;;;;;;;10.52;7.43;;;;;;;;;;10103425;28;20080;-73
2023/09/20 11:53:20;;;;;;;12.75;7.65;;;;;;;;;;10103609;28;20061;-74
2023/09/20 11:58:20;;;;;;;12.27;7.82;;;;;;;;;;10100135;28;20065;-73
2023/09/20 12:15:43;;;;;;;10.57;8.00;;;;;;;;;;9900097;29;20066;-74
2023/09/20 12:26:01;;;;;;;12.02;10.38;;;;;;;;;;9944660;26;20047;-74
2023/09/20 12:31:06;;;;;;;11.60;8.75;;;;;;;;;;10124821;28;20502;-73
2023/09/20 12:36:11;;;;;;;12.55;8.85;;;;;;;;;;10129064;28;20061;-74
2023/09/20 12:41:31;;;;;;;10.07;8.93;;;;;;;;;;10112227;28;20501;-74
2023/09/20 12:46:28;;;;;;;12.18;8.57;;;;;;;;;;10125838;28;20197;-74
2023/09/20 12:51:25;;;;;;;11.02;8.30;;;;;;;;;;10128159;28;20561;-74
2023/09/20 12:56:21;;;;;;;10.27;8.60;;;;;;;;;;10147623;28;20141;-74
2023/09/20 13:01:18;;;;;;;11.57;8.45;;;;;;;;;;10148047;28;20506;-74
2023/09/20 13:06:14;;;;;;;9.07;8.23;;;;;;;;;;10138518;28;20046;-73
2023/09/20 13:11:11;;;;;;;9.25;8.13;;;;;;;;;;10134412;28;20046;-73
2023/09/20 13:16:09;;;;;;;10.70;7.78;;;;;;;;;;10139588;28;20522;-74
2023/09/20 13:21:05;;;;;;;9.38;8.35;;;;;;;;;;10143300;28;20100;-74
2023/09/20 13:26:05;;;;;;;11.48;8.07;;;;;;;;;;10130292;28;20049;-72
2023/09/20 13:31:02;;;;;;;9.15;7.97;;;;;;;;;;10140874;28;20058;-73
2023/09/20 13:35:59;;;;;;;8.27;7.43;;;;;;;;;;10145233;28;20402;-73
2023/09/20 13:40:56;;;;;;;10.30;7.38;;;;;;;;;;10145463;28;20049;-73
2023/09/20 13:45:53;;;;;;;7.70;7.00;;;;;;;;;;10127777;28;20749;-72
2023/09/20 13:50:49;;;;;;;10.48;7.55;;;;;;;;;;10143377;28;20620;-73
2023/09/20 13:55:46;;;;;;;8.52;7.82;;;;;;;;;;10146750;28;20101;-74
2023/09/20 14:00:42;;;;;;;10.23;9.15;;;;;;;;;;10151298;28;20054;-73
2023/09/20 14:05:39;;;;;;;8.85;7.95;;;;;;;;;;10146128;28;20065;-73
2023/09/20 14:10:36;;;;;;;8.35;7.53;;;;;;;;;;10144677;28;20050;-74
2023/09/20 14:15:32;;;;;;;8.55;7.70;;;;;;;;;;10142813;28;20536;-73
2023/09/20 14:20:28;;;;;;;8.57;7.82;;;;;;;;;;10153549;28;20514;-74
2023/09/20 14:25:25;;;;;;;8.73;7.60;;;;;;;;;;10149849;28;20054;-74
2023/09/20 14:30:22;;;;;;;8.52;7.20;;;;;;;;;;10142980;28;20493;-73
2023/09/20 14:35:19;;;;;;;7.72;7.03;;;;;;;;;;10134409;28;20422;-70
2023/09/20 14:40:17;;;;;;;8.20;7.20;;;;;;;;;;10149999;28;20051;-71
2023/09/20 14:45:22;;;;;;;7.85;7.15;;;;;;;;;;10146446;28;20045;-70
2023/09/20 14:50:19;;;;;;;7.70;7.00;;;;;;;;;;10132050;28;20057;-71
2023/09/20 14:55:18;;;;;;;7.75;7.05;;;;;;;;;;10141822;28;20470;-70
2023/09/20 15:00:18;;;;;;;7.63;6.80;;;;;;;;;;10125962;28;20065;-71
2023/09/20 15:05:17;;;;;;;7.80;7.00;;;;;;;;;;10143085;28;20054;-71
2023/09/20 15:10:16;;;;;;;8.30;7.40;;;;;;;;;;10122066;28;20055;-74
2023/09/20 15:15:15;;;;;;;7.93;7.15;;;;;;;;;;10136923;28;20054;-73
2023/09/20 15:25:18;;;;;;;8.23;7.15;;;;;;;;;;10184675;28;20132;-73
2023/09/20 15:30:15;;;;;;;10.52;7.05;;;;;;;;;;10180414;28;20563;-74
2023/09/20 15:35:11;;;;;;;7.88;6.50;;;;;;;;;;10174017;28;20081;-73
2023/09/20 15:40:09;;;;;;;8.32;7.28;;;;;;;;;;10174496;28;20050;-73
2023/09/20 15:45:06;;;;;;;9.32;7.35;;;;;;;;;;10181614;28;20077;-73
2023/09/20 15:50:03;;;;;;;8.15;6.43;;;;;;;;;;10184310;28;20409;-73
2023/09/20 15:54:59;;;;;;;7.32;6.63;;;;;;;;;;10183928;28;20506;-73
2023/09/20 15:59:58;;;;;;;10.65;6.90;;;;;;;;;;10188467;28;20103;-73
2023/09/20 16:04:55;;;;;;;8.95;7.43;;;;;;;;;;10162304;28;20070;-74
2023/09/20 16:09:51;;;;;;;7.00;6.30;;;;;;;;;;10169410;28;20076;-74
2023/09/20 16:44:54;;;;;;;8.38;5.68;;;;;;;;;;10213122;23;20471;-74
2023/09/20 16:55:34;;;;;;;7.00;6.30;;;;;;;;;;2519839;26;20058;-73
2023/09/20 17:07:18;;;;;;;10.95;6.18;;;;;;;;;;9986760;29;20609;-74
2023/09/20 17:12:29;;;;;;;7.30;6.55;;;;;;;;;;9965837;28;20148;-73
2023/09/20 17:17:25;;;;;;;7.22;6.47;;;;;;;;;;10069912;28;20106;-74
2023/09/20 17:51:14;;;;;;;6.38;5.78;;;;;;;;;;10204004;22;20051;-76
2023/09/20 18:07:37;;;;;;;9.40;5.77;;;;;;;;;;10263787;23;20052;-76
2023/09/20 20:00:32;;;;;;;7.43;5.75;;;;;;;;;;10171232;28;20049;-72
2023/09/20 20:05:59;;;;;;;7.00;5.38;;;;;;;;;;10187381;28;20054;-72
2023/09/20 20:10:55;;;;;;;6.50;5.80;;;;;;;;;;10162481;28;20058;-73
2023/09/20 20:15:54;;;;;;;6.53;5.70;;;;;;;;;;10189772;28;20116;-69
2023/09/20 20:20:51;;;;;;;8.68;5.45;;;;;;;;;;10185303;28;20050;-69
2023/09/20 20:25:50;;;;;;;6.88;6.22;;;;;;;;;;10192659;28;20589;-69
2023/09/20 20:30:48;;;;;;;7.28;6.05;;;;;;;;;;10184493;28;20116;-69
2023/09/20 20:35:45;;;;;;;7.22;6.57;;;;;;;;;;10186439;28;20476;-69
2023/09/20 20:40:42;;;;;;;6.72;6.10;;;;;;;;;;10162543;28;20050;-69
2023/09/20 20:45:39;;;;;;;8.35;6.40;;;;;;;;;;10188655;28;20046;-69
2023/09/20 20:50:37;;;;;;;11.43;6.47;;;;;;;;;;10177731;28;20061;-69
2023/09/20 20:55:35;;;;;;;6.88;6.18;;;;;;;;;;10167162;28;20140;-68
2023/09/20 21:00:34;;;;;;;7.65;6.50;;;;;;;;;;10147190;28;1045382;-69
2023/09/20 21:05:33;;;;;;;7.45;6.07;;;;;;;;;;10185620;28;20053;-69
2023/09/20 21:10:37;;;;;;;8.10;6.53;;;;;;;;;;10193388;28;20051;-69
2023/09/20 21:15:35;;;;;;;7.40;6.55;;;;;;;;;;10189959;28;20049;-69
2023/09/20 21:20:34;;;;;;;14.90;7.78;;;;;;;;;;10188760;28;20096;-68
2023/09/20 21:25:32;;;;;;;7.65;6.32;;;;;;;;;;10180163;28;20077;-69
2023/09/20 21:30:31;;;;;;;7.05;6.35;;;;;;;;;;10162091;28;20402;-69
2023/09/20 21:35:28;;;;;;;6.82;6.22;;;;;;;;;;10184916;28;20061;-70
2023/09/20 21:40:28;;;;;;;7.55;6.28;;;;;;;;;;10189979;28;20442;-69
2023/09/20 21:45:26;;;;;;;6.60;5.97;;;;;;;;;;10195071;28;20053;-70
2023/09/20 21:50:23;;;;;;;7.18;6.47;;;;;;;;;;10196631;28;20669;-70
2023/09/20 21:55:25;;;;;;;6.65;5.97;;;;;;;;;;10195261;28;20510;-70
2023/09/20 22:05:26;;;;;;;6.95;6.25;;;;;;;;;;10192505;28;20066;-69
2023/09/20 22:10:37;;;;;;;6.55;5.30;;;;;;;;;;10185254;28;20570;-70
2023/09/20 22:15:34;;;;;;;6.63;5.93;;;;;;;;;;10185327;28;20654;-70
2023/09/20 22:20:31;;;;;;;7.03;5.75;;;;;;;;;;10190027;28;20046;-70
2023/09/20 22:25:30;;;;;;;7.00;6.07;;;;;;;;;;10194284;28;20101;-70
2023/09/20 22:30:26;;;;;;;6.40;5.82;;;;;;;;;;10184031;28;20046;-70
2023/09/20 22:35:22;;;;;;;6.82;5.63;;;;;;;;;;10197909;28;20046;-70
2023/09/20 22:40:21;;;;;;;6.97;6.28;;;;;;;;;;10194141;28;20052;-70
2023/09/20 22:50:20;;;;;;;6.80;6.10;;;;;;;;;;10191115;28;20513;-70
2023/09/20 22:55:17;;;;;;;6.53;5.97;;;;;;;;;;10200187;28;20046;-70
2023/09/20 23:00:21;;;;;;;9.32;6.50;;;;;;;;;;10193163;28;20050;-70
2023/09/20 23:05:19;;;;;;;7.60;5.65;;;;;;;;;;10195802;28;20148;-70
2023/09/20 23:10:23;;;;;;;5.93;5.43;;;;;;;;;;10203208;28;20136;-70
2023/09/20 23:15:21;;;;;;;6.85;6.22;;;;;;;;;;10187119;28;20057;-70
2023/09/20 23:25:32;;;;;;;6.00;5.47;;;;;;;;;;10179855;28;20112;-70
2023/09/20 23:30:34;;;;;;;6.55;5.47;;;;;;;;;;10198313;28;20052;-71
2023/09/20 23:35:30;;;;;;;5.63;5.13;;;;;;;;;;10189207;28;20053;-69
2023/09/20 23:40:27;;;;;;;6.07;5.57;;;;;;;;;;10190078;28;20056;-69
2023/09/20 23:45:23;;;;;;;5.75;5.25;;;;;;;;;;10198430;28;20041;-70
2023/09/20 23:50:20;;;;;;;7.13;5.53;;;;;;;;;;10184119;28;20049;-70
2023/09/20 23:55:16;;;;;;;6.00;5.50;;;;;;;;;;10197390;28;20679;-70
